createdAt,value
2019-05-20T00:02:25.814Z,2.00
2019-05-20T00:04:46.289Z,1.47
2019-05-20T00:07:14.775Z,1.60
2019-05-20T00:09:43.554Z,1.67
2019-05-20T00:12:11.993Z,1.70
2019-05-20T00:14:40.410Z,1.63
2019-05-20T00:17:08.836Z,1.50
2019-05-20T00:19:37.276Z,1.90
2019-05-20T00:22:06.066Z,1.50
2019-05-20T00:24:34.510Z,1.50
2019-05-20T00:27:02.958Z,1.37
2019-05-20T00:29:31.391Z,1.37
2019-05-20T00:32:00.183Z,1.27
2019-05-20T00:34:35.009Z,1.50
2019-05-20T00:36:58.770Z,1.30
2019-05-20T00:39:27.573Z,1.23
2019-05-20T00:41:55.988Z,1.40
2019-05-20T00:44:24.430Z,1.30
2019-05-20T00:46:52.855Z,1.37
2019-05-20T00:49:21.690Z,1.40
2019-05-20T00:51:50.116Z,1.57
2019-05-20T00:54:18.570Z,1.53
2019-05-20T00:56:49.121Z,1.47
2019-05-20T00:59:17.566Z,1.50
2019-05-20T01:01:46.335Z,1.70
2019-05-20T01:04:14.796Z,1.83
2019-05-20T01:06:43.615Z,1.50
2019-05-20T01:09:12.129Z,1.87
2019-05-20T01:11:40.880Z,1.70
2019-05-20T01:14:09.591Z,1.60
2019-05-20T01:16:38.046Z,2.00
2019-05-20T01:19:06.469Z,1.77
2019-05-20T01:21:34.895Z,1.93
2019-05-20T01:24:03.379Z,2.07
2019-05-20T01:26:31.875Z,2.00
2019-05-20T01:29:00.339Z,2.20
2019-05-20T01:31:28.761Z,2.30
2019-05-20T01:33:57.503Z,2.30
2019-05-20T01:36:25.957Z,2.37
2019-05-20T01:38:54.457Z,2.40
2019-05-20T01:41:22.888Z,2.80
2019-05-20T01:43:51.330Z,2.73
2019-05-20T01:46:19.768Z,3.17
2019-05-20T01:48:48.487Z,3.70
2019-05-20T01:51:16.909Z,3.00
2019-05-20T01:53:45.356Z,4.23
2019-05-20T01:56:13.804Z,3.90
2019-05-20T01:58:42.270Z,4.20
2019-05-20T02:01:10.717Z,4.03
2019-05-20T02:03:39.155Z,4.60
2019-05-20T02:06:07.603Z,5.17
2019-05-20T02:08:36.028Z,4.60
2019-05-20T02:11:04.532Z,5.00
2019-05-20T02:13:53.158Z,4.70
2019-05-20T02:16:23.591Z,5.20
2019-05-20T02:18:52.627Z,5.07
2019-05-20T02:21:21.092Z,5.20
2019-05-20T02:23:49.834Z,5.83
2019-05-20T02:26:18.253Z,5.80
2019-05-20T02:28:47.008Z,5.97
2019-05-20T02:31:15.478Z,5.97
2019-05-20T02:33:51.451Z,5.50
2019-05-20T02:36:14.129Z,6.20
2019-05-20T02:38:43.070Z,6.63
2019-05-20T02:41:11.898Z,6.60
2019-05-20T02:43:40.387Z,7.03
2019-05-20T02:46:08.843Z,7.97
2019-05-20T02:48:37.592Z,7.30
2019-05-20T02:51:06.031Z,7.67
2019-05-20T02:53:34.467Z,7.53
2019-05-20T02:56:02.917Z,8.17
2019-05-20T02:58:31.416Z,7.90
2019-05-20T03:00:59.868Z,8.23
2019-05-20T03:03:28.283Z,7.43
2019-05-20T03:05:56.753Z,7.33
2019-05-20T03:08:25.261Z,7.53
2019-05-20T03:10:53.733Z,6.93
2019-05-20T03:13:22.243Z,9.47
2019-05-20T03:15:50.691Z,8.27
2019-05-20T03:18:19.149Z,7.37
2019-05-20T03:20:47.934Z,8.00
2019-05-20T03:23:16.845Z,8.40
2019-05-20T03:25:45.747Z,8.03
2019-05-20T03:28:14.189Z,7.23
2019-05-20T03:30:43.420Z,7.57
2019-05-20T03:33:12.193Z,8.27
2019-05-20T03:35:40.644Z,8.50
2019-05-20T03:38:09.104Z,7.60
2019-05-20T03:40:37.563Z,8.97
2019-05-20T03:43:06.294Z,9.40
2019-05-20T03:45:34.752Z,9.20
2019-05-20T03:48:03.588Z,9.03
2019-05-20T03:50:32.369Z,8.47
2019-05-20T03:53:00.818Z,7.70
2019-05-20T03:55:29.266Z,9.13
2019-05-20T03:57:58.217Z,9.27
2019-05-20T04:00:46.543Z,10.37
2019-05-20T04:03:16.070Z,10.17
2019-05-20T04:05:45.272Z,10.10
2019-05-20T04:08:14.265Z,10.07
2019-05-20T04:10:43.046Z,10.07
2019-05-20T04:13:11.556Z,9.57
2019-05-20T04:15:39.992Z,10.07
2019-05-20T04:18:08.461Z,10.33
2019-05-20T04:20:36.893Z,10.70
2019-05-20T04:23:05.730Z,9.53
2019-05-20T04:25:34.237Z,10.77
2019-05-20T04:28:03.016Z,10.33
2019-05-20T04:30:31.600Z,12.03
2019-05-20T04:33:00.064Z,10.73
2019-05-20T04:35:28.494Z,11.83
2019-05-20T04:37:56.979Z,11.00
2019-05-20T04:40:25.418Z,10.27
2019-05-20T04:42:54.189Z,11.07
2019-05-20T04:45:26.257Z,11.03
2019-05-20T04:47:55.053Z,11.57
2019-05-20T04:50:23.503Z,10.70
2019-05-20T04:52:51.944Z,9.93
2019-05-20T04:55:20.454Z,9.80
2019-05-20T04:57:48.976Z,9.93
2019-05-20T05:00:20.484Z,10.13
2019-05-20T05:02:48.958Z,10.50
2019-05-20T05:05:17.387Z,9.93
2019-05-20T05:07:45.835Z,10.23
2019-05-20T05:10:14.717Z,11.40
2019-05-20T05:12:43.516Z,9.53
2019-05-20T05:15:14.451Z,8.87
2019-05-20T05:17:42.972Z,9.87
2019-05-20T05:20:17.839Z,9.93
2019-05-20T05:22:41.835Z,11.27
2019-05-20T05:25:10.830Z,9.90
2019-05-20T05:27:39.282Z,9.83
2019-05-20T05:30:08.516Z,9.17
2019-05-20T05:32:43.298Z,9.53
2019-05-20T05:35:14.700Z,10.77
2019-05-20T05:37:43.241Z,10.73
2019-05-20T05:40:12.546Z,9.97
2019-05-20T05:42:41.112Z,11.07
2019-05-20T05:45:10.862Z,10.30
2019-05-20T05:47:39.361Z,10.77
2019-05-20T05:50:09.456Z,9.83
2019-05-20T05:52:37.929Z,10.90
2019-05-20T05:55:06.481Z,13.37
2019-05-20T05:57:34.938Z,9.83
2019-05-20T06:00:08.399Z,9.93
2019-05-20T06:02:36.844Z,10.67
2019-05-20T06:05:05.872Z,10.40
2019-05-20T06:07:34.331Z,10.83
2019-05-20T06:10:03.155Z,11.60
2019-05-20T06:12:31.629Z,11.07
2019-05-20T06:15:00.067Z,11.53
2019-05-20T06:17:28.885Z,11.40
2019-05-20T06:19:57.347Z,12.03
2019-05-20T06:22:25.839Z,11.33
2019-05-20T06:24:54.312Z,11.40
2019-05-20T06:27:22.759Z,11.87
2019-05-20T06:29:51.224Z,11.73
2019-05-20T06:32:19.767Z,12.87
2019-05-20T06:34:48.463Z,11.87
2019-05-20T06:37:21.448Z,11.60
2019-05-20T06:39:51.330Z,12.07
2019-05-20T06:42:22.524Z,10.93
2019-05-20T06:44:53.955Z,11.60
2019-05-20T06:47:21.499Z,10.73
2019-05-20T06:49:49.962Z,12.93
2019-05-20T06:52:34.421Z,11.97
2019-05-20T06:54:48.583Z,11.23
2019-05-20T06:57:17.357Z,11.30
2019-05-20T06:59:46.078Z,12.23
2019-05-20T07:02:14.519Z,12.33
2019-05-20T07:05:05.652Z,13.17
2019-05-20T07:07:34.119Z,11.00
2019-05-20T07:10:02.661Z,14.20
2019-05-20T07:12:40.581Z,12.63
2019-05-20T07:15:01.279Z,13.27
2019-05-20T07:17:29.706Z,13.77
2019-05-20T07:19:58.461Z,13.37
2019-05-20T07:22:26.880Z,13.37
2019-05-20T07:28:24.324Z,13.73
2019-05-20T07:30:58.579Z,13.87
2019-05-20T07:33:26.990Z,12.23
2019-05-20T07:35:55.422Z,13.20
2019-05-20T07:38:23.836Z,13.07
2019-05-20T07:40:52.256Z,13.17
2019-05-20T07:43:20.679Z,13.83
2019-05-20T07:45:49.467Z,13.27
2019-05-20T07:48:18.874Z,14.53
2019-05-20T07:50:49.175Z,14.03
2019-05-20T07:53:18.333Z,16.67
2019-05-20T07:55:52.585Z,14.17
2019-05-20T07:58:24.492Z,14.03
2019-05-20T08:00:52.990Z,13.17
2019-05-20T08:03:21.871Z,13.03
2019-05-20T08:05:51.877Z,12.97
2019-05-20T08:08:20.391Z,14.73
2019-05-20T08:10:49.079Z,13.83
2019-05-20T08:13:17.557Z,14.20
2019-05-20T08:15:46.331Z,12.67
2019-05-20T08:18:14.778Z,13.60
2019-05-20T08:20:43.688Z,14.37
2019-05-20T08:23:21.214Z,13.37
2019-05-20T08:25:49.689Z,14.77
2019-05-20T08:28:18.187Z,13.53
2019-05-20T08:30:46.653Z,15.00
2019-05-20T08:33:15.083Z,12.50
2019-05-20T08:35:43.683Z,11.63
2019-05-20T08:38:12.154Z,13.37
2019-05-20T08:40:42.186Z,12.40
2019-05-20T08:43:11.084Z,12.17
2019-05-20T08:45:39.556Z,12.37
2019-05-20T08:48:08.419Z,13.70
2019-05-20T08:50:37.211Z,12.67
2019-05-20T08:53:05.991Z,14.73
2019-05-20T08:55:34.454Z,13.40
2019-05-20T08:58:03.297Z,12.53
2019-05-20T09:00:31.838Z,13.30
2019-05-20T09:03:00.357Z,13.37
2019-05-20T09:05:29.239Z,11.90
2019-05-20T09:08:03.102Z,12.50
2019-05-20T09:10:27.868Z,13.00
2019-05-20T09:12:56.318Z,12.53
2019-05-20T09:15:25.087Z,12.57
2019-05-20T09:17:53.670Z,11.70
2019-05-20T09:23:50.929Z,14.10
2019-05-20T09:26:19.357Z,15.40
2019-05-20T09:28:47.766Z,14.20
2019-05-20T09:31:16.374Z,13.37
2019-05-20T09:33:44.856Z,12.97
2019-05-20T09:36:13.743Z,12.93
2019-05-20T09:38:42.178Z,12.67
2019-05-20T09:41:11.010Z,11.80
2019-05-20T09:43:39.441Z,11.87
2019-05-20T09:46:09.114Z,11.07
2019-05-20T09:48:44.487Z,11.73
2019-05-20T09:51:12.938Z,16.10
2019-05-20T09:53:41.370Z,10.30
2019-05-20T09:56:11.769Z,12.13
2019-05-20T09:58:46.276Z,10.73
2019-05-20T10:01:27.563Z,10.70
2019-05-20T10:03:59.171Z,10.70
2019-05-20T10:06:49.750Z,11.77
2019-05-20T10:09:18.203Z,11.40
2019-05-20T10:11:46.645Z,12.20
2019-05-20T10:14:16.163Z,13.17
2019-05-20T10:16:44.987Z,15.77
2019-05-20T10:19:14.462Z,15.10
2019-05-20T10:21:43.206Z,14.10
2019-05-20T10:24:11.688Z,14.13
2019-05-20T10:26:40.157Z,14.10
2019-05-20T10:29:10.838Z,14.73
2019-05-20T10:31:39.310Z,13.60
2019-05-20T10:34:07.760Z,16.07
2019-05-20T10:36:36.222Z,14.03
2019-05-20T10:39:07.927Z,14.57
2019-05-20T10:41:36.829Z,14.23
2019-05-20T10:44:05.310Z,14.73
2019-05-20T10:46:33.870Z,16.13
2019-05-20T10:49:02.814Z,16.13
2019-05-20T10:51:31.586Z,18.23
2019-05-20T10:54:00.043Z,14.57
2019-05-20T10:56:28.486Z,15.30
2019-05-20T10:58:56.983Z,14.57
2019-05-20T11:01:25.503Z,14.57
2019-05-20T11:03:54.425Z,15.13
2019-05-20T11:06:22.900Z,15.07
2019-05-20T11:08:51.353Z,14.53
2019-05-20T11:11:19.787Z,14.70
2019-05-20T11:13:48.238Z,16.97
2019-05-20T11:16:16.670Z,18.97
2019-05-20T11:18:45.121Z,15.43
2019-05-20T11:21:13.587Z,18.13
2019-05-20T11:23:43.152Z,18.57
2019-05-20T11:26:11.873Z,16.60
2019-05-20T11:28:40.957Z,17.27
2019-05-20T11:31:09.450Z,16.07
2019-05-20T11:33:40.617Z,17.17
2019-05-20T11:36:09.163Z,17.20
2019-05-20T11:38:37.958Z,16.70
2019-05-20T11:41:06.484Z,15.17
2019-05-20T11:43:34.956Z,16.73
2019-05-20T11:46:03.831Z,16.83
2019-05-20T11:48:32.375Z,16.60
2019-05-20T11:51:00.838Z,14.53
2019-05-20T11:53:29.285Z,14.40
2019-05-20T11:55:57.735Z,15.30
2019-05-20T11:58:26.222Z,19.70
2019-05-20T12:01:00.461Z,15.83
2019-05-20T12:03:28.942Z,13.90
2019-05-20T12:05:57.425Z,14.50
2019-05-20T12:08:25.931Z,14.37
2019-05-20T12:10:54.371Z,14.43
2019-05-20T12:13:22.833Z,15.97
2019-05-20T12:15:51.274Z,15.73
2019-05-20T12:18:19.742Z,14.93
2019-05-20T12:20:48.251Z,14.33
2019-05-20T12:23:16.698Z,14.07
2019-05-20T12:25:45.138Z,15.33
2019-05-20T12:28:13.635Z,12.90
2019-05-20T12:30:42.101Z,13.57
2019-05-20T12:33:18.757Z,14.80
2019-05-20T12:35:41.510Z,15.30
2019-05-20T12:38:09.970Z,14.77
2019-05-20T12:40:38.467Z,13.37
2019-05-20T12:43:08.588Z,14.70
2019-05-20T12:45:37.078Z,17.27
2019-05-20T12:48:05.538Z,17.77
2019-05-20T12:50:33.986Z,15.60
2019-05-20T12:53:02.808Z,16.13
2019-05-20T12:55:33.200Z,16.40
2019-05-20T12:58:01.667Z,14.73
2019-05-20T13:00:30.155Z,17.17
2019-05-20T13:02:58.677Z,16.43
2019-05-20T13:05:27.142Z,17.17
2019-05-20T13:07:55.598Z,16.53
2019-05-20T13:10:29.680Z,16.63
2019-05-20T13:12:54.271Z,15.90
2019-05-20T13:15:22.924Z,17.90
2019-05-20T13:17:52.931Z,20.67
2019-05-20T13:20:22.124Z,16.57
2019-05-20T13:22:50.977Z,18.40
2019-05-20T13:25:19.802Z,17.17
2019-05-20T13:27:48.234Z,18.50
2019-05-20T13:30:18.231Z,18.23
2019-05-20T13:32:46.702Z,18.60
2019-05-20T13:35:15.657Z,18.93
2019-05-20T13:37:47.368Z,19.73
2019-05-20T13:40:16.931Z,22.20
2019-05-20T13:42:45.439Z,19.97
2019-05-20T13:45:14.364Z,22.50
2019-05-20T13:47:42.858Z,22.20
2019-05-20T13:50:11.642Z,20.60
2019-05-20T13:52:40.226Z,19.77
2019-05-20T13:55:09.335Z,21.60
2019-05-20T13:57:38.453Z,22.03
2019-05-20T14:00:09.073Z,23.17
2019-05-20T14:02:37.589Z,22.93
2019-05-20T14:05:06.752Z,26.30
2019-05-20T14:07:35.266Z,24.20
2019-05-20T14:10:06.296Z,29.97
2019-05-20T14:12:34.741Z,29.23
2019-05-20T14:15:03.807Z,32.47
2019-05-20T14:17:32.630Z,28.40
2019-05-20T14:20:01.165Z,26.60
2019-05-20T14:22:29.581Z,24.97
2019-05-20T14:24:58.092Z,30.40
2019-05-20T14:27:26.559Z,29.67
2019-05-20T14:29:55.027Z,29.07
2019-05-20T14:32:23.475Z,29.40
2019-05-20T14:34:51.929Z,32.67
2019-05-20T14:37:20.387Z,31.00
2019-05-20T14:39:49.270Z,30.93
2019-05-20T14:42:18.180Z,28.77
2019-05-20T14:44:46.661Z,27.20
2019-05-20T14:47:15.101Z,27.70
2019-05-20T14:49:43.517Z,25.33
2019-05-20T14:52:12.230Z,25.07
2019-05-20T14:54:40.684Z,21.07
2019-05-20T14:57:09.242Z,23.13
2019-05-20T14:59:37.697Z,23.27
2019-05-20T15:02:06.213Z,19.63
2019-05-20T15:04:34.661Z,20.03
2019-05-20T15:07:03.102Z,18.83
2019-05-20T15:09:31.538Z,25.70
2019-05-20T15:12:00.415Z,21.33
2019-05-20T15:14:28.860Z,20.57
2019-05-20T15:16:57.325Z,23.70
2019-05-20T15:19:25.749Z,24.77
2019-05-20T15:21:54.219Z,32.07
2019-05-20T15:24:22.654Z,26.23
2019-05-20T15:26:51.168Z,27.90
2019-05-20T15:29:27.890Z,27.10
2019-05-20T15:31:49.871Z,24.33
2019-05-20T15:34:18.306Z,24.30
2019-05-20T15:36:47.754Z,28.60
2019-05-20T15:39:16.255Z,24.40
2019-05-20T15:41:44.813Z,21.13
2019-05-20T15:44:24.589Z,25.33
2019-05-20T15:46:53.040Z,22.17
2019-05-20T15:49:22.811Z,22.27
2019-05-20T15:51:51.320Z,22.00
2019-05-20T15:54:25.838Z,21.80
2019-05-20T15:56:54.510Z,27.47
2019-05-20T15:59:44.420Z,22.27
2019-05-20T16:01:59.097Z,22.57
2019-05-20T16:04:27.594Z,22.23
2019-05-20T16:06:59.954Z,20.73
2019-05-20T16:09:26.243Z,21.80
2019-05-20T16:11:54.694Z,22.83
2019-05-20T16:14:23.141Z,21.27
2019-05-20T16:16:51.605Z,21.80
2019-05-20T16:19:20.074Z,22.70
2019-05-20T16:21:48.504Z,22.23
2019-05-20T16:24:16.989Z,22.93
2019-05-20T16:26:45.509Z,24.40
2019-05-20T16:29:14.025Z,24.57
2019-05-20T16:31:42.487Z,25.50
2019-05-20T16:34:10.940Z,24.90
2019-05-20T16:36:39.391Z,28.03
2019-05-20T16:39:07.982Z,23.87
2019-05-20T16:41:36.471Z,23.73
2019-05-20T16:44:04.885Z,22.40
2019-05-20T16:46:50.844Z,27.90
2019-05-20T16:49:19.303Z,23.47
2019-05-20T16:51:47.724Z,23.93
2019-05-20T16:54:16.164Z,22.50
2019-05-20T16:56:44.636Z,25.53
2019-05-20T16:59:13.094Z,22.13
2019-05-20T17:01:46.278Z,22.20
2019-05-20T17:04:11.730Z,22.47
2019-05-20T17:06:40.166Z,23.53
2019-05-20T17:09:08.630Z,25.63
2019-05-20T17:11:37.107Z,21.30
2019-05-20T17:14:05.571Z,26.23
2019-05-20T17:16:34.014Z,23.10
2019-05-20T17:19:02.477Z,23.83
2019-05-20T17:21:31.129Z,24.43
2019-05-20T17:23:59.847Z,22.90
2019-05-20T17:26:28.800Z,22.80
2019-05-20T17:28:57.571Z,20.83
2019-05-20T17:31:26.857Z,18.57
2019-05-20T17:33:56.053Z,22.03
2019-05-20T17:36:24.571Z,18.57
2019-05-20T17:38:53.054Z,18.13
2019-05-20T17:41:21.664Z,18.23
2019-05-20T17:43:50.162Z,19.30
2019-05-20T17:46:18.671Z,17.57
2019-05-20T17:48:47.146Z,17.53
2019-05-20T17:51:18.716Z,16.60
2019-05-20T17:53:47.270Z,20.23
2019-05-20T17:56:17.006Z,18.50
2019-05-20T17:58:45.852Z,21.10
2019-05-20T18:01:16.018Z,18.57
2019-05-20T18:03:44.816Z,17.00
2019-05-20T18:06:13.558Z,19.97
2019-05-20T18:08:43.647Z,21.90
2019-05-20T18:11:12.359Z,20.23
2019-05-20T18:13:40.836Z,24.23
2019-05-20T18:16:09.655Z,21.00
2019-05-20T18:18:38.104Z,30.23
2019-05-20T18:21:06.917Z,27.53
2019-05-20T18:23:35.822Z,29.63
2019-05-20T18:26:04.241Z,30.07
2019-05-20T18:28:32.987Z,28.77
2019-05-20T18:31:01.489Z,29.40
2019-05-20T18:33:30.350Z,29.03
2019-05-20T18:35:59.126Z,28.60
2019-05-20T18:38:27.651Z,35.63
2019-05-20T18:40:56.099Z,35.93
2019-05-20T18:43:24.570Z,33.20
2019-05-20T18:45:53.029Z,30.37
2019-05-20T18:48:21.470Z,38.20
2019-05-20T18:50:50.309Z,34.50
2019-05-20T18:53:18.751Z,36.67
2019-05-20T18:55:47.204Z,38.23
2019-05-20T18:58:15.644Z,38.00
2019-05-20T19:00:44.171Z,35.77
2019-05-20T19:03:12.708Z,33.90
2019-05-20T19:05:41.168Z,30.10
2019-05-20T19:08:09.823Z,36.80
2019-05-20T19:10:38.643Z,30.60
2019-05-20T19:13:07.447Z,33.13
2019-05-20T19:15:35.914Z,36.37
2019-05-20T19:18:04.495Z,41.47
2019-05-20T19:20:32.942Z,38.93
2019-05-20T19:23:01.460Z,45.47
2019-05-20T19:25:37.681Z,46.70
2019-05-20T19:28:01.007Z,46.30
2019-05-20T19:30:29.531Z,44.43
2019-05-20T19:32:58.243Z,46.77
2019-05-20T19:35:26.732Z,50.90
2019-05-20T19:37:55.172Z,55.07
2019-05-20T19:40:24.001Z,56.00
2019-05-20T19:42:52.484Z,56.43
2019-05-20T19:45:20.947Z,50.47
2019-05-20T19:47:49.391Z,55.77
2019-05-20T19:50:19.989Z,53.73
2019-05-20T19:52:48.639Z,59.20
2019-05-20T19:55:19.057Z,58.77
2019-05-20T19:57:48.180Z,59.50
2019-05-20T20:00:17.515Z,56.90
2019-05-20T20:02:45.953Z,56.00
2019-05-20T20:05:14.834Z,57.53
2019-05-20T20:07:43.309Z,60.63
2019-05-20T20:10:12.199Z,56.93
2019-05-20T20:12:40.988Z,54.30
2019-05-20T20:15:17.590Z,47.77
2019-05-20T20:17:46.202Z,47.13
2019-05-20T20:20:15.687Z,43.47
2019-05-20T20:22:44.560Z,39.20
2019-05-20T20:25:13.626Z,37.97
2019-05-20T20:27:42.437Z,22.57
2019-05-20T20:30:11.430Z,24.50
2019-05-20T20:32:39.859Z,29.57
2019-05-20T20:35:09.028Z,27.17
2019-05-20T20:37:37.570Z,24.90
2019-05-20T20:40:06.786Z,23.70
2019-05-20T20:42:35.233Z,26.57
2019-05-20T20:45:04.644Z,29.87
2019-05-20T20:47:41.248Z,31.30
2019-05-20T20:50:04.687Z,37.03
2019-05-20T20:52:33.144Z,34.20
2019-05-20T20:55:01.574Z,34.57
2019-05-20T20:57:30.416Z,33.60
2019-05-20T20:59:59.214Z,31.93
2019-05-20T21:02:27.983Z,34.73
2019-05-20T21:04:56.674Z,32.13
2019-05-20T21:07:25.118Z,34.10
2019-05-20T21:09:53.584Z,30.80
2019-05-20T21:12:22.096Z,35.83
2019-05-20T21:14:50.894Z,33.93
2019-05-20T21:17:19.345Z,32.03
2019-05-20T21:19:47.802Z,33.27
2019-05-20T21:22:16.254Z,29.20
2019-05-20T21:24:44.742Z,30.47
2019-05-20T21:27:13.499Z,34.90
2019-05-20T21:29:42.229Z,30.33
2019-05-20T21:32:10.704Z,26.00
2019-05-20T21:34:39.214Z,28.40
2019-05-20T21:37:07.707Z,23.70
2019-05-20T21:39:36.435Z,27.00
2019-05-20T21:42:04.893Z,26.90
2019-05-20T21:44:33.786Z,25.23
2019-05-20T21:47:02.575Z,24.07
2019-05-20T21:49:31.017Z,21.93
2019-05-20T21:51:59.480Z,23.80
2019-05-20T21:54:28.308Z,23.20
2019-05-20T21:56:56.758Z,20.00
2019-05-20T21:59:25.233Z,21.27
2019-05-20T22:01:53.686Z,23.00
2019-05-20T22:04:22.150Z,21.67
2019-05-20T22:06:50.593Z,22.13
2019-05-20T22:09:19.058Z,24.33
2019-05-20T22:11:47.504Z,24.33
2019-05-20T22:14:15.977Z,23.30
2019-05-20T22:16:45.146Z,30.70
2019-05-20T22:19:14.048Z,31.80
2019-05-20T22:21:50.128Z,37.83
2019-05-20T22:24:18.576Z,33.03
2019-05-20T22:26:47.355Z,40.30
2019-05-20T22:29:15.787Z,39.20
2019-05-20T22:31:45.088Z,41.30
2019-05-20T22:34:13.539Z,42.13
2019-05-20T22:36:42.411Z,44.63
2019-05-20T22:39:11.207Z,45.87
2019-05-20T22:41:39.635Z,44.43
2019-05-20T22:44:08.106Z,53.93
2019-05-20T22:46:36.558Z,50.33
2019-05-20T22:49:05.059Z,46.67
2019-05-20T22:51:33.825Z,46.30
2019-05-20T22:54:02.451Z,44.80
2019-05-20T22:56:30.972Z,45.43
2019-05-20T22:58:59.454Z,43.90
2019-05-20T23:01:28.243Z,47.73
2019-05-20T23:03:56.877Z,49.00
2019-05-20T23:06:25.711Z,46.03
2019-05-20T23:08:54.487Z,49.10
2019-05-20T23:11:22.937Z,47.60
2019-05-20T23:13:51.747Z,44.97
2019-05-20T23:16:20.196Z,54.00
2019-05-20T23:18:48.674Z,49.10
2019-05-20T23:21:17.109Z,49.30
2019-05-20T23:23:45.893Z,44.53
2019-05-20T23:26:14.332Z,42.83
2019-05-20T23:28:42.820Z,43.07
2019-05-20T23:31:11.265Z,42.30
2019-05-20T23:33:40.012Z,43.87
2019-05-20T23:36:08.800Z,47.20
2019-05-20T23:38:37.258Z,46.33
2019-05-20T23:41:05.687Z,46.97
2019-05-20T23:43:34.156Z,51.13
2019-05-20T23:46:02.908Z,47.17
2019-05-20T23:48:31.397Z,48.30
2019-05-20T23:51:00.181Z,51.77
2019-05-20T23:53:28.638Z,50.53
2019-05-20T23:55:57.551Z,50.43
2019-05-20T23:58:26.327Z,48.27
